DAL691 KRDU-KBOS
Flight info
| Callsign | DAL691 |
|---|---|
| Flight time | 1h 32m |
| Altitude | 39000 |
| Route | BEXGO5 BOUSY GEARS BBOBO Q22 RBV Q419 JFK ROBUC3 |
| Aircraft | A333/H-SDE3GHIJ2J3J5M1RVWXY/LB2D1 |
Departure
| Time | 2026-05-06 23:23 |
|---|---|
| Airport | Raleigh-Durham International Airport (KRDU) |
Arrival
| Time | 2026-05-07 00:55 |
|---|---|
| Airport | Boston Logan International Airport (KBOS) |
| Time | Latitude | Longitude | Altitude | Speed | Heading |
|---|---|---|---|---|---|
| 2026-05-06 23:00 | 35.87466 | -78.79636 | 390 ft | 0 kts | 18° |
| 2026-05-06 23:14 | 35.87449 | -78.79643 | 390 ft | 3 kts | 18° |
| 2026-05-06 23:15 | 35.87436 | -78.79649 | 390 ft | 1 kts | 16° |
| 2026-05-06 23:15 | 35.87425 | -78.79653 | 390 ft | 1 kts | 8° |
| 2026-05-06 23:15 | 35.87416 | -78.79654 | 390 ft | 1 kts | 353° |
| 2026-05-06 23:15 | 35.87408 | -78.79652 | 390 ft | 1 kts | 337° |
| 2026-05-06 23:16 | 35.87404 | -78.79650 | 391 ft | 0 kts | 329° |
| 2026-05-06 23:16 | 35.87431 | -78.79682 | 389 ft | 15 kts | 313° |
| 2026-05-06 23:17 | 35.87529 | -78.79779 | 383 ft | 16 kts | 360° |
| 2026-05-06 23:17 | 35.87610 | -78.79704 | 384 ft | 12 kts | 48° |
| 2026-05-06 23:17 | 35.87676 | -78.79620 | 386 ft | 15 kts | 45° |
| 2026-05-06 23:17 | 35.87767 | -78.79507 | 389 ft | 20 kts | 45° |
| 2026-05-06 23:18 | 35.87881 | -78.79367 | 391 ft | 26 kts | 45° |
| 2026-05-06 23:18 | 35.88014 | -78.79202 | 396 ft | 27 kts | 45° |
| 2026-05-06 23:18 | 35.88144 | -78.79041 | 399 ft | 25 kts | 45° |
| 2026-05-06 23:18 | 35.88260 | -78.78896 | 404 ft | 22 kts | 45° |
| 2026-05-06 23:19 | 35.88368 | -78.78762 | 406 ft | 21 kts | 45° |
| 2026-05-06 23:19 | 35.88466 | -78.78640 | 409 ft | 19 kts | 45° |
| 2026-05-06 23:19 | 35.88559 | -78.78525 | 407 ft | 19 kts | 45° |
| 2026-05-06 23:19 | 35.88656 | -78.78406 | 406 ft | 19 kts | 45° |
| 2026-05-06 23:20 | 35.88755 | -78.78284 | 404 ft | 20 kts | 44° |
| 2026-05-06 23:20 | 35.88858 | -78.78159 | 403 ft | 20 kts | 45° |
| 2026-05-06 23:20 | 35.88953 | -78.78037 | 404 ft | 19 kts | 53° |
| 2026-05-06 23:20 | 35.89006 | -78.77893 | 406 ft | 20 kts | 64° |
| 2026-05-06 23:21 | 35.89093 | -78.77779 | 407 ft | 17 kts | 40° |
| 2026-05-06 23:21 | 35.89178 | -78.77683 | 410 ft | 15 kts | 42° |
| 2026-05-06 23:21 | 35.89270 | -78.77693 | 408 ft | 14 kts | 319° |
| 2026-05-06 23:21 | 35.89295 | -78.77722 | 408 ft | 0 kts | 317° |
| 2026-05-06 23:22 | 35.89348 | -78.77804 | 407 ft | 23 kts | 278° |
| 2026-05-06 23:22 | 35.89248 | -78.77970 | 403 ft | 35 kts | 225° |
| 2026-05-06 23:22 | 35.88907 | -78.78394 | 397 ft | 103 kts | 225° |
| 2026-05-06 23:23 | 35.88255 | -78.79200 | 453 ft | 152 kts | 226° |
| 2026-05-06 23:23 | 35.87535 | -78.80128 | 1102 ft | 150 kts | 227° |
| 2026-05-06 23:23 | 35.86838 | -78.81034 | 1868 ft | 146 kts | 227° |
| 2026-05-06 23:23 | 35.86308 | -78.82079 | 2398 ft | 153 kts | 255° |
| 2026-05-06 23:24 | 35.86176 | -78.83421 | 2716 ft | 166 kts | 261° |
| 2026-05-06 23:24 | 35.86070 | -78.84896 | 3050 ft | 178 kts | 261° |
| 2026-05-06 23:24 | 35.85942 | -78.86475 | 3302 ft | 197 kts | 260° |
| 2026-05-06 23:24 | 35.85786 | -78.88261 | 3667 ft | 218 kts | 261° |
| 2026-05-06 23:25 | 35.85898 | -78.90176 | 4138 ft | 241 kts | 285° |
| 2026-05-06 23:25 | 35.86887 | -78.91929 | 4751 ft | 264 kts | 315° |
| 2026-05-06 23:25 | 35.88573 | -78.92918 | 5592 ft | 278 kts | 344° |
| 2026-05-06 23:25 | 35.90514 | -78.92844 | 6395 ft | 293 kts | 10° |
| 2026-05-06 23:26 | 35.92343 | -78.91663 | 7206 ft | 306 kts | 36° |
| 2026-05-06 23:26 | 35.93885 | -78.89813 | 7968 ft | 311 kts | 41° |
| 2026-05-06 23:26 | 35.95414 | -78.87916 | 8701 ft | 315 kts | 41° |
| 2026-05-06 23:26 | 35.96947 | -78.85986 | 9456 ft | 317 kts | 40° |
| 2026-05-06 23:27 | 35.98479 | -78.84019 | 10186 ft | 321 kts | 41° |
| 2026-05-06 23:27 | 36.00057 | -78.81978 | 10559 ft | 338 kts | 41° |
| 2026-05-06 23:27 | 36.01718 | -78.79823 | 10871 ft | 357 kts | 41° |
| 2026-05-06 23:27 | 36.03497 | -78.77542 | 11140 ft | 376 kts | 41° |
| 2026-05-06 23:28 | 36.05352 | -78.75160 | 11426 ft | 393 kts | 41° |
| 2026-05-06 23:28 | 36.07279 | -78.72700 | 11844 ft | 403 kts | 41° |
| 2026-05-06 23:28 | 36.09230 | -78.70198 | 12548 ft | 405 kts | 41° |
| 2026-05-06 23:28 | 36.11196 | -78.67675 | 13157 ft | 409 kts | 41° |
| 2026-05-06 23:29 | 36.13172 | -78.65113 | 13723 ft | 414 kts | 41° |
| 2026-05-06 23:29 | 36.15195 | -78.62499 | 14355 ft | 417 kts | 41° |
| 2026-05-06 23:29 | 36.17190 | -78.59919 | 14922 ft | 420 kts | 40° |
| 2026-05-06 23:29 | 36.19229 | -78.57274 | 15551 ft | 422 kts | 41° |
| 2026-05-06 23:30 | 36.21252 | -78.54652 | 16147 ft | 424 kts | 40° |
| 2026-05-06 23:30 | 36.23291 | -78.52003 | 16600 ft | 430 kts | 40° |
| 2026-05-06 23:30 | 36.25377 | -78.49297 | 17155 ft | 433 kts | 40° |
| 2026-05-06 23:30 | 36.27467 | -78.46586 | 17662 ft | 436 kts | 40° |
| 2026-05-06 23:31 | 36.29578 | -78.43850 | 18191 ft | 439 kts | 40° |
| 2026-05-06 23:31 | 36.31680 | -78.41110 | 18731 ft | 441 kts | 40° |
| 2026-05-06 23:31 | 36.33822 | -78.38330 | 19096 ft | 447 kts | 40° |
| 2026-05-06 23:31 | 36.35962 | -78.35561 | 19615 ft | 449 kts | 40° |
| 2026-05-06 23:32 | 36.38153 | -78.32735 | 19957 ft | 455 kts | 41° |
| 2026-05-06 23:32 | 36.40344 | -78.29926 | 20408 ft | 457 kts | 41° |
| 2026-05-06 23:32 | 36.42566 | -78.27072 | 20856 ft | 459 kts | 40° |
| 2026-05-06 23:32 | 36.44790 | -78.24216 | 21169 ft | 464 kts | 40° |
| 2026-05-06 23:33 | 36.47051 | -78.21313 | 21617 ft | 465 kts | 41° |
| 2026-05-06 23:33 | 36.49316 | -78.18413 | 21967 ft | 469 kts | 41° |
| 2026-05-06 23:33 | 36.51592 | -78.15508 | 22374 ft | 471 kts | 40° |
| 2026-05-06 23:33 | 36.53876 | -78.12589 | 22722 ft | 474 kts | 41° |
| 2026-05-06 23:34 | 36.56228 | -78.09599 | 23006 ft | 479 kts | 40° |
| 2026-05-06 23:34 | 36.58532 | -78.06658 | 23382 ft | 481 kts | 41° |
| 2026-05-06 23:34 | 36.60907 | -78.03626 | 23703 ft | 484 kts | 41° |
| 2026-05-06 23:34 | 36.63260 | -78.00623 | 24149 ft | 485 kts | 40° |
| 2026-05-06 23:35 | 36.65609 | -77.97616 | 24456 ft | 489 kts | 40° |
| 2026-05-06 23:35 | 36.67973 | -77.94576 | 24779 ft | 492 kts | 40° |
| 2026-05-06 23:35 | 36.70377 | -77.91487 | 25142 ft | 494 kts | 40° |
| 2026-05-06 23:35 | 36.72780 | -77.88396 | 25402 ft | 498 kts | 40° |
| 2026-05-06 23:36 | 36.75194 | -77.85292 | 25754 ft | 500 kts | 40° |
| 2026-05-06 23:36 | 36.77600 | -77.82194 | 26113 ft | 502 kts | 40° |
| 2026-05-06 23:36 | 36.80040 | -77.79044 | 26497 ft | 503 kts | 40° |
| 2026-05-06 23:36 | 36.82484 | -77.75886 | 26751 ft | 507 kts | 40° |
| 2026-05-06 23:37 | 36.84951 | -77.72716 | 26986 ft | 511 kts | 40° |
| 2026-05-06 23:37 | 36.87427 | -77.69524 | 27382 ft | 511 kts | 40° |
| 2026-05-06 23:37 | 36.89901 | -77.66328 | 27728 ft | 513 kts | 40° |
| 2026-05-06 23:37 | 36.92387 | -77.63125 | 27939 ft | 517 kts | 40° |
| 2026-05-06 23:38 | 36.94910 | -77.59879 | 28187 ft | 520 kts | 40° |
| 2026-05-06 23:38 | 36.97446 | -77.56610 | 28555 ft | 521 kts | 40° |
| 2026-05-06 23:38 | 36.99968 | -77.53367 | 28773 ft | 524 kts | 40° |
| 2026-05-06 23:38 | 37.02513 | -77.50088 | 29104 ft | 525 kts | 40° |
| 2026-05-06 23:39 | 37.05088 | -77.46772 | 29432 ft | 526 kts | 40° |
| 2026-05-06 23:39 | 37.07619 | -77.43504 | 29723 ft | 528 kts | 40° |
| 2026-05-06 23:39 | 37.10188 | -77.40158 | 30050 ft | 529 kts | 40° |
| 2026-05-06 23:39 | 37.12721 | -77.36833 | 30465 ft | 528 kts | 39° |
| 2026-05-06 23:40 | 37.15245 | -77.33478 | 30794 ft | 529 kts | 40° |
| 2026-05-06 23:40 | 37.17784 | -77.30095 | 31078 ft | 530 kts | 40° |
| 2026-05-06 23:40 | 37.20309 | -77.26721 | 31398 ft | 531 kts | 39° |
| 2026-05-06 23:40 | 37.22825 | -77.23322 | 31862 ft | 528 kts | 39° |
| 2026-05-06 23:41 | 37.25317 | -77.19922 | 32226 ft | 528 kts | 39° |
| 2026-05-06 23:41 | 37.27783 | -77.16529 | 32474 ft | 530 kts | 39° |
| 2026-05-06 23:41 | 37.30253 | -77.13113 | 32888 ft | 528 kts | 39° |
| 2026-05-06 23:41 | 37.32771 | -77.09735 | 33141 ft | 522 kts | 33° |
| 2026-05-06 23:42 | 37.35639 | -77.07138 | 33295 ft | 503 kts | 19° |
| 2026-05-06 23:42 | 37.38658 | -77.04916 | 33711 ft | 501 kts | 18° |
| 2026-05-06 23:42 | 37.41678 | -77.02666 | 34191 ft | 498 kts | 19° |
| 2026-05-06 23:42 | 37.44638 | -77.00459 | 34598 ft | 497 kts | 19° |
| 2026-05-06 23:43 | 37.47619 | -76.98216 | 35071 ft | 495 kts | 19° |
| 2026-05-06 23:43 | 37.50557 | -76.95991 | 35443 ft | 485 kts | 14° |
| 2026-05-06 23:43 | 37.53659 | -76.94601 | 35657 ft | 459 kts | 359° |
| 2026-05-06 23:43 | 37.56741 | -76.93889 | 36193 ft | 450 kts | 357° |
| 2026-05-06 23:44 | 37.59848 | -76.93079 | 36567 ft | 451 kts | 358° |
| 2026-05-06 23:44 | 37.62970 | -76.92226 | 36859 ft | 451 kts | 359° |
| 2026-05-06 23:44 | 37.66022 | -76.91372 | 37158 ft | 450 kts | 358° |
| 2026-05-06 23:44 | 37.69142 | -76.90498 | 37532 ft | 448 kts | 358° |
| 2026-05-06 23:45 | 37.72197 | -76.89639 | 37851 ft | 447 kts | 358° |
| 2026-05-06 23:45 | 37.75267 | -76.88780 | 38066 ft | 447 kts | 358° |
| 2026-05-06 23:45 | 37.78341 | -76.87907 | 38385 ft | 446 kts | 358° |
| 2026-05-06 23:45 | 37.81408 | -76.87046 | 38578 ft | 447 kts | 358° |
| 2026-05-06 23:46 | 37.84458 | -76.86186 | 38952 ft | 444 kts | 358° |
| 2026-05-06 23:46 | 37.87526 | -76.85322 | 38833 ft | 450 kts | 358° |
| 2026-05-06 23:46 | 37.90629 | -76.84443 | 38913 ft | 452 kts | 358° |
| 2026-05-06 23:47 | 37.96825 | -76.82689 | 38888 ft | 459 kts | 358° |
| 2026-05-06 23:47 | 38.03143 | -76.80898 | 38875 ft | 465 kts | 358° |
| 2026-05-06 23:48 | 38.09524 | -76.79082 | 38881 ft | 467 kts | 358° |
| 2026-05-06 23:48 | 38.15872 | -76.77275 | 38886 ft | 467 kts | 358° |
| 2026-05-06 23:49 | 38.22201 | -76.75443 | 38890 ft | 464 kts | 0° |
| 2026-05-06 23:49 | 38.25303 | -76.73949 | 38882 ft | 489 kts | 13° |
| 2026-05-06 23:49 | 38.28248 | -76.71566 | 38909 ft | 513 kts | 26° |
| 2026-05-06 23:49 | 38.30903 | -76.68406 | 38902 ft | 530 kts | 34° |
| 2026-05-06 23:50 | 38.33581 | -76.65163 | 38904 ft | 522 kts | 28° |
| 2026-05-06 23:50 | 38.41837 | -76.56152 | 38899 ft | 518 kts | 27° |
| 2026-05-06 23:51 | 38.47326 | -76.50268 | 38896 ft | 519 kts | 27° |
| 2026-05-06 23:51 | 38.52889 | -76.44289 | 38896 ft | 522 kts | 27° |
| 2026-05-06 23:52 | 38.58436 | -76.38315 | 38900 ft | 519 kts | 27° |
| 2026-05-06 23:52 | 38.63946 | -76.32373 | 38850 ft | 519 kts | 28° |
| 2026-05-06 23:53 | 38.69496 | -76.26372 | 38875 ft | 522 kts | 28° |
| 2026-05-06 23:53 | 38.75069 | -76.20335 | 38884 ft | 524 kts | 28° |
| 2026-05-06 23:54 | 38.80619 | -76.14309 | 38871 ft | 520 kts | 27° |
| 2026-05-06 23:54 | 38.86145 | -76.08293 | 38872 ft | 520 kts | 28° |
| 2026-05-06 23:55 | 38.91639 | -76.02308 | 38879 ft | 522 kts | 28° |
| 2026-05-06 23:55 | 38.97178 | -75.96204 | 38882 ft | 526 kts | 30° |
| 2026-05-06 23:56 | 39.02549 | -75.89762 | 38879 ft | 524 kts | 30° |
| 2026-05-06 23:56 | 39.07877 | -75.83410 | 38868 ft | 524 kts | 31° |
| 2026-05-06 23:57 | 39.13273 | -75.76968 | 38870 ft | 529 kts | 30° |
| 2026-05-06 23:57 | 39.18605 | -75.70578 | 38355 ft | 515 kts | 30° |
| 2026-05-06 23:58 | 39.21223 | -75.67445 | 37421 ft | 516 kts | 31° |
| 2026-05-06 23:58 | 39.23860 | -75.64283 | 36716 ft | 513 kts | 31° |
| 2026-05-06 23:58 | 39.26459 | -75.61157 | 37036 ft | 509 kts | 30° |
| 2026-05-06 23:58 | 39.29082 | -75.58013 | 36771 ft | 521 kts | 30° |
| 2026-05-06 23:59 | 39.31757 | -75.54792 | 36905 ft | 524 kts | 31° |
| 2026-05-06 23:59 | 39.34422 | -75.51576 | 36862 ft | 531 kts | 30° |
| 2026-05-06 23:59 | 39.39881 | -75.44988 | 36879 ft | 538 kts | 31° |
| 2026-05-07 00:00 | 39.45320 | -75.38395 | 36859 ft | 530 kts | 30° |
| 2026-05-07 00:00 | 39.50714 | -75.31859 | 36835 ft | 530 kts | 31° |
| 2026-05-07 00:01 | 39.56101 | -75.25316 | 36840 ft | 530 kts | 31° |
| 2026-05-07 00:01 | 39.61471 | -75.18775 | 36835 ft | 530 kts | 32° |
| 2026-05-07 00:02 | 39.66843 | -75.12211 | 36832 ft | 531 kts | 31° |
| 2026-05-07 00:02 | 39.72389 | -75.05900 | 36848 ft | 531 kts | 28° |
| 2026-05-07 00:03 | 39.78028 | -74.99568 | 36852 ft | 532 kts | 28° |
| 2026-05-07 00:03 | 39.83651 | -74.93207 | 36851 ft | 528 kts | 28° |
| 2026-05-07 00:04 | 39.89175 | -74.86968 | 36849 ft | 529 kts | 28° |
| 2026-05-07 00:04 | 39.95052 | -74.81372 | 36865 ft | 519 kts | 21° |
| 2026-05-07 00:05 | 40.00954 | -74.75959 | 36855 ft | 515 kts | 21° |
| 2026-05-07 00:05 | 40.03834 | -74.73129 | 36844 ft | 529 kts | 29° |
| 2026-05-07 00:05 | 40.06433 | -74.69607 | 36872 ft | 545 kts | 38° |
| 2026-05-07 00:06 | 40.11468 | -74.62182 | 36853 ft | 547 kts | 37° |
| 2026-05-07 00:06 | 40.16559 | -74.54833 | 36860 ft | 542 kts | 37° |
| 2026-05-07 00:07 | 40.21743 | -74.47798 | 36856 ft | 526 kts | 27° |
| 2026-05-07 00:07 | 40.27405 | -74.41863 | 36847 ft | 520 kts | 26° |
| 2026-05-07 00:08 | 40.32990 | -74.35896 | 36842 ft | 518 kts | 26° |
| 2026-05-07 00:08 | 40.38580 | -74.29910 | 36815 ft | 519 kts | 27° |
| 2026-05-07 00:09 | 40.44195 | -74.23879 | 36813 ft | 521 kts | 27° |
| 2026-05-07 00:09 | 40.49823 | -74.17812 | 36828 ft | 519 kts | 27° |
| 2026-05-07 00:10 | 40.54951 | -74.10925 | 36843 ft | 547 kts | 47° |
| 2026-05-07 00:10 | 40.56833 | -74.06565 | 36613 ft | 553 kts | 58° |
| 2026-05-07 00:10 | 40.58157 | -74.01747 | 35668 ft | 565 kts | 71° |
| 2026-05-07 00:11 | 40.58926 | -73.96744 | 35417 ft | 553 kts | 75° |
| 2026-05-07 00:11 | 40.59868 | -73.91921 | 35009 ft | 541 kts | 68° |
| 2026-05-07 00:11 | 40.60963 | -73.87215 | 34206 ft | 542 kts | 68° |
| 2026-05-07 00:11 | 40.62074 | -73.82414 | 33313 ft | 546 kts | 69° |
| 2026-05-07 00:12 | 40.63367 | -73.77778 | 32525 ft | 538 kts | 56° |
| 2026-05-07 00:12 | 40.65389 | -73.73725 | 31780 ft | 519 kts | 40° |
| 2026-05-07 00:12 | 40.67845 | -73.70328 | 30931 ft | 515 kts | 37° |
| 2026-05-07 00:12 | 40.70293 | -73.66891 | 29976 ft | 522 kts | 39° |
| 2026-05-07 00:13 | 40.72745 | -73.63331 | 29014 ft | 527 kts | 40° |
| 2026-05-07 00:13 | 40.75221 | -73.59706 | 28376 ft | 522 kts | 40° |
| 2026-05-07 00:13 | 40.77597 | -73.56210 | 27917 ft | 513 kts | 40° |
| 2026-05-07 00:13 | 40.79991 | -73.52697 | 27284 ft | 509 kts | 39° |
| 2026-05-07 00:14 | 40.82327 | -73.49268 | 26805 ft | 504 kts | 39° |
| 2026-05-07 00:14 | 40.84684 | -73.45800 | 26896 ft | 508 kts | 40° |
| 2026-05-07 00:14 | 40.87056 | -73.42302 | 26901 ft | 513 kts | 40° |
| 2026-05-07 00:14 | 40.89442 | -73.38783 | 26817 ft | 512 kts | 40° |
| 2026-05-07 00:15 | 40.91801 | -73.35295 | 26870 ft | 509 kts | 40° |
| 2026-05-07 00:15 | 40.94178 | -73.31782 | 26829 ft | 509 kts | 41° |
| 2026-05-07 00:15 | 40.96523 | -73.28302 | 26840 ft | 505 kts | 41° |
| 2026-05-07 00:15 | 40.98861 | -73.24841 | 26830 ft | 504 kts | 41° |
| 2026-05-07 00:16 | 41.01160 | -73.21421 | 26406 ft | 497 kts | 41° |
| 2026-05-07 00:16 | 41.03461 | -73.18011 | 25532 ft | 499 kts | 40° |
| 2026-05-07 00:16 | 41.05767 | -73.14578 | 24972 ft | 493 kts | 40° |
| 2026-05-07 00:16 | 41.08024 | -73.11214 | 24546 ft | 484 kts | 40° |
| 2026-05-07 00:17 | 41.10251 | -73.07903 | 23814 ft | 483 kts | 40° |
| 2026-05-07 00:17 | 41.12462 | -73.04600 | 23199 ft | 480 kts | 41° |
| 2026-05-07 00:17 | 41.14693 | -73.01268 | 22783 ft | 477 kts | 41° |
| 2026-05-07 00:17 | 41.16873 | -72.98003 | 22887 ft | 472 kts | 41° |
| 2026-05-07 00:18 | 41.19061 | -72.94729 | 22826 ft | 478 kts | 41° |
| 2026-05-07 00:18 | 41.21190 | -72.91348 | 22808 ft | 478 kts | 49° |
| 2026-05-07 00:18 | 41.22822 | -72.87427 | 22839 ft | 485 kts | 60° |
| 2026-05-07 00:18 | 41.24284 | -72.83442 | 22844 ft | 485 kts | 59° |
| 2026-05-07 00:19 | 41.25798 | -72.79439 | 22823 ft | 484 kts | 59° |
| 2026-05-07 00:19 | 41.27323 | -72.75429 | 22836 ft | 484 kts | 59° |
| 2026-05-07 00:19 | 41.28843 | -72.71444 | 22817 ft | 484 kts | 59° |
| 2026-05-07 00:19 | 41.30356 | -72.67472 | 22838 ft | 484 kts | 58° |
| 2026-05-07 00:20 | 41.31888 | -72.63448 | 22839 ft | 483 kts | 59° |
| 2026-05-07 00:20 | 41.33401 | -72.59475 | 22840 ft | 483 kts | 59° |
| 2026-05-07 00:20 | 41.34920 | -72.55463 | 22841 ft | 485 kts | 59° |
| 2026-05-07 00:20 | 41.36427 | -72.51486 | 22837 ft | 482 kts | 58° |
| 2026-05-07 00:21 | 41.37939 | -72.47509 | 22838 ft | 483 kts | 59° |
| 2026-05-07 00:21 | 41.39446 | -72.43508 | 22852 ft | 481 kts | 59° |
| 2026-05-07 00:21 | 41.40937 | -72.39565 | 22842 ft | 481 kts | 59° |
| 2026-05-07 00:21 | 41.42451 | -72.35545 | 22836 ft | 481 kts | 59° |
| 2026-05-07 00:22 | 41.43939 | -72.31600 | 22816 ft | 478 kts | 60° |
| 2026-05-07 00:22 | 41.45413 | -72.27671 | 22352 ft | 473 kts | 60° |
| 2026-05-07 00:22 | 41.46884 | -72.23762 | 21786 ft | 469 kts | 60° |
| 2026-05-07 00:22 | 41.48342 | -72.19868 | 21205 ft | 466 kts | 62° |
| 2026-05-07 00:23 | 41.49737 | -72.16052 | 20751 ft | 459 kts | 61° |
| 2026-05-07 00:23 | 41.51134 | -72.12235 | 20282 ft | 453 kts | 62° |
| 2026-05-07 00:23 | 41.52504 | -72.08486 | 19745 ft | 449 kts | 62° |
| 2026-05-07 00:23 | 41.53859 | -72.04778 | 19247 ft | 444 kts | 63° |
| 2026-05-07 00:24 | 41.55205 | -72.01091 | 18774 ft | 438 kts | 64° |
| 2026-05-07 00:24 | 41.56444 | -71.97426 | 18216 ft | 434 kts | 69° |
| 2026-05-07 00:24 | 41.57515 | -71.93717 | 17759 ft | 429 kts | 69° |
| 2026-05-07 00:24 | 41.58605 | -71.90024 | 17257 ft | 432 kts | 69° |
| 2026-05-07 00:25 | 41.59717 | -71.86289 | 16709 ft | 434 kts | 69° |
| 2026-05-07 00:25 | 41.60810 | -71.82586 | 16161 ft | 431 kts | 69° |
| 2026-05-07 00:25 | 41.61903 | -71.78889 | 15607 ft | 427 kts | 69° |
| 2026-05-07 00:25 | 41.62983 | -71.75222 | 15054 ft | 424 kts | 69° |
| 2026-05-07 00:26 | 41.64061 | -71.71573 | 14502 ft | 421 kts | 69° |
| 2026-05-07 00:26 | 41.65126 | -71.67951 | 13830 ft | 422 kts | 69° |
| 2026-05-07 00:26 | 41.66189 | -71.64329 | 13027 ft | 416 kts | 69° |
| 2026-05-07 00:26 | 41.67230 | -71.60781 | 12298 ft | 408 kts | 69° |
| 2026-05-07 00:27 | 41.68251 | -71.57300 | 11577 ft | 400 kts | 69° |
| 2026-05-07 00:27 | 41.69248 | -71.53895 | 10995 ft | 388 kts | 69° |
| 2026-05-07 00:27 | 41.70204 | -71.50624 | 11069 ft | 360 kts | 68° |
| 2026-05-07 00:27 | 41.71103 | -71.47546 | 11033 ft | 354 kts | 69° |
| 2026-05-07 00:28 | 41.71988 | -71.44511 | 11021 ft | 352 kts | 69° |
| 2026-05-07 00:28 | 41.73009 | -71.41547 | 11036 ft | 351 kts | 59° |
| 2026-05-07 00:28 | 41.74239 | -71.38761 | 11036 ft | 350 kts | 58° |
| 2026-05-07 00:28 | 41.75471 | -71.35923 | 11028 ft | 350 kts | 59° |
| 2026-05-07 00:29 | 41.76662 | -71.33152 | 10740 ft | 344 kts | 59° |
| 2026-05-07 00:29 | 41.77863 | -71.30351 | 10113 ft | 347 kts | 60° |
| 2026-05-07 00:30 | 41.81264 | -71.22375 | 10022 ft | 322 kts | 59° |
| 2026-05-07 00:30 | 41.82357 | -71.19801 | 10022 ft | 319 kts | 60° |
| 2026-05-07 00:30 | 41.83461 | -71.17207 | 10029 ft | 321 kts | 60° |
| 2026-05-07 00:30 | 41.84579 | -71.14576 | 10028 ft | 323 kts | 60° |
| 2026-05-07 00:31 | 41.85673 | -71.12002 | 10025 ft | 320 kts | 60° |
| 2026-05-07 00:31 | 41.86789 | -71.09424 | 10029 ft | 322 kts | 59° |
| 2026-05-07 00:31 | 41.87914 | -71.06823 | 10027 ft | 321 kts | 60° |
| 2026-05-07 00:31 | 41.89026 | -71.04250 | 10027 ft | 323 kts | 60° |
| 2026-05-07 00:32 | 41.90151 | -71.01633 | 10025 ft | 322 kts | 59° |
| 2026-05-07 00:32 | 41.91273 | -70.99036 | 10022 ft | 322 kts | 59° |
| 2026-05-07 00:32 | 41.92374 | -70.96477 | 10019 ft | 322 kts | 59° |
| 2026-05-07 00:32 | 41.93500 | -70.93869 | 10031 ft | 321 kts | 59° |
| 2026-05-07 00:33 | 41.94629 | -70.91242 | 10053 ft | 324 kts | 60° |
| 2026-05-07 00:33 | 41.95748 | -70.88641 | 10015 ft | 323 kts | 59° |
| 2026-05-07 00:33 | 41.96859 | -70.86049 | 10030 ft | 324 kts | 60° |
| 2026-05-07 00:33 | 41.97983 | -70.83429 | 10028 ft | 321 kts | 60° |
| 2026-05-07 00:34 | 41.99098 | -70.80827 | 10022 ft | 323 kts | 60° |
| 2026-05-07 00:34 | 42.00221 | -70.78207 | 10026 ft | 322 kts | 60° |
| 2026-05-07 00:34 | 42.01382 | -70.75673 | 9768 ft | 317 kts | 51° |
| 2026-05-07 00:34 | 42.02875 | -70.73492 | 9325 ft | 317 kts | 44° |
| 2026-05-07 00:35 | 42.04347 | -70.71345 | 8951 ft | 314 kts | 45° |
| 2026-05-07 00:35 | 42.05804 | -70.69175 | 8610 ft | 310 kts | 46° |
| 2026-05-07 00:35 | 42.07232 | -70.67033 | 8209 ft | 310 kts | 46° |
| 2026-05-07 00:35 | 42.08685 | -70.64858 | 8005 ft | 306 kts | 46° |
| 2026-05-07 00:36 | 42.10102 | -70.62759 | 7955 ft | 304 kts | 43° |
| 2026-05-07 00:36 | 42.11833 | -70.61153 | 7427 ft | 301 kts | 16° |
| 2026-05-07 00:36 | 42.13811 | -70.60604 | 7035 ft | 290 kts | 360° |
| 2026-05-07 00:36 | 42.15813 | -70.60199 | 6700 ft | 289 kts | 5° |
| 2026-05-07 00:37 | 42.17789 | -70.59674 | 6296 ft | 289 kts | 6° |
| 2026-05-07 00:37 | 42.19723 | -70.59139 | 5946 ft | 286 kts | 6° |
| 2026-05-07 00:37 | 42.21682 | -70.58594 | 5638 ft | 281 kts | 5° |
| 2026-05-07 00:37 | 42.23538 | -70.58070 | 5626 ft | 265 kts | 5° |
| 2026-05-07 00:38 | 42.25303 | -70.57577 | 5529 ft | 255 kts | 4° |
| 2026-05-07 00:38 | 42.27011 | -70.57105 | 5323 ft | 251 kts | 5° |
| 2026-05-07 00:38 | 42.28731 | -70.56624 | 5022 ft | 253 kts | 4° |
| 2026-05-07 00:38 | 42.30472 | -70.56139 | 5036 ft | 251 kts | 5° |
| 2026-05-07 00:39 | 42.32187 | -70.55896 | 4995 ft | 243 kts | 343° |
| 2026-05-07 00:39 | 42.33643 | -70.56681 | 5036 ft | 224 kts | 310° |
| 2026-05-07 00:39 | 42.34691 | -70.58166 | 5029 ft | 216 kts | 304° |
| 2026-05-07 00:39 | 42.35740 | -70.59628 | 5003 ft | 217 kts | 306° |
| 2026-05-07 00:40 | 42.36809 | -70.61061 | 5022 ft | 217 kts | 307° |
| 2026-05-07 00:40 | 42.37889 | -70.62489 | 5001 ft | 216 kts | 307° |
| 2026-05-07 00:40 | 42.38958 | -70.63899 | 5010 ft | 215 kts | 307° |
| 2026-05-07 00:40 | 42.40035 | -70.65315 | 5005 ft | 218 kts | 308° |
| 2026-05-07 00:41 | 42.41113 | -70.66737 | 4996 ft | 219 kts | 308° |
| 2026-05-07 00:41 | 42.42200 | -70.68162 | 4998 ft | 216 kts | 308° |
| 2026-05-07 00:41 | 42.43261 | -70.69560 | 4998 ft | 216 kts | 308° |
| 2026-05-07 00:41 | 42.44334 | -70.70974 | 5008 ft | 216 kts | 308° |
| 2026-05-07 00:42 | 42.45404 | -70.72387 | 4996 ft | 214 kts | 307° |
| 2026-05-07 00:42 | 42.46462 | -70.73779 | 4995 ft | 214 kts | 307° |
| 2026-05-07 00:42 | 42.47544 | -70.75208 | 5004 ft | 214 kts | 308° |
| 2026-05-07 00:42 | 42.48609 | -70.76613 | 4998 ft | 214 kts | 308° |
| 2026-05-07 00:43 | 42.49681 | -70.78027 | 5001 ft | 213 kts | 308° |
| 2026-05-07 00:43 | 42.50736 | -70.79425 | 4991 ft | 214 kts | 308° |
| 2026-05-07 00:43 | 42.51810 | -70.80833 | 4995 ft | 217 kts | 310° |
| 2026-05-07 00:43 | 42.53148 | -70.81832 | 4989 ft | 229 kts | 341° |
| 2026-05-07 00:44 | 42.54768 | -70.81704 | 5017 ft | 245 kts | 14° |
| 2026-05-07 00:44 | 42.56285 | -70.80579 | 5023 ft | 251 kts | 25° |
| 2026-05-07 00:44 | 42.57865 | -70.79584 | 5000 ft | 249 kts | 15° |
| 2026-05-07 00:44 | 42.59491 | -70.78751 | 5008 ft | 250 kts | 14° |
| 2026-05-07 00:45 | 42.61126 | -70.77936 | 4992 ft | 251 kts | 14° |
| 2026-05-07 00:45 | 42.62752 | -70.77130 | 5002 ft | 250 kts | 14° |
| 2026-05-07 00:45 | 42.64374 | -70.76297 | 4995 ft | 249 kts | 14° |
| 2026-05-07 00:45 | 42.65991 | -70.75482 | 4991 ft | 249 kts | 10° |
| 2026-05-07 00:46 | 42.67646 | -70.75367 | 4995 ft | 232 kts | 338° |
| 2026-05-07 00:46 | 42.68992 | -70.76396 | 5012 ft | 215 kts | 305° |
| 2026-05-07 00:46 | 42.69609 | -70.78119 | 4993 ft | 201 kts | 272° |
| 2026-05-07 00:46 | 42.69337 | -70.79923 | 4998 ft | 197 kts | 239° |
| 2026-05-07 00:47 | 42.68344 | -70.81223 | 4978 ft | 200 kts | 218° |
| 2026-05-07 00:47 | 42.67164 | -70.82194 | 4749 ft | 200 kts | 215° |
| 2026-05-07 00:47 | 42.65939 | -70.83102 | 4455 ft | 202 kts | 206° |
| 2026-05-07 00:47 | 42.64605 | -70.83737 | 4159 ft | 201 kts | 209° |
| 2026-05-07 00:48 | 42.63387 | -70.84479 | 4122 ft | 182 kts | 210° |
| 2026-05-07 00:48 | 42.62261 | -70.85164 | 3946 ft | 173 kts | 211° |
| 2026-05-07 00:48 | 42.61159 | -70.85822 | 3647 ft | 172 kts | 210° |
| 2026-05-07 00:48 | 42.60096 | -70.86454 | 3428 ft | 166 kts | 210° |
| 2026-05-07 00:49 | 42.59038 | -70.87077 | 3039 ft | 167 kts | 209° |
| 2026-05-07 00:49 | 42.57992 | -70.87720 | 2994 ft | 165 kts | 210° |
| 2026-05-07 00:49 | 42.56994 | -70.88472 | 3004 ft | 165 kts | 216° |
| 2026-05-07 00:49 | 42.56013 | -70.89278 | 2992 ft | 162 kts | 217° |
| 2026-05-07 00:50 | 42.55013 | -70.90096 | 3018 ft | 170 kts | 216° |
| 2026-05-07 00:50 | 42.54049 | -70.90864 | 3005 ft | 153 kts | 216° |
| 2026-05-07 00:50 | 42.53199 | -70.91633 | 3012 ft | 150 kts | 223° |
| 2026-05-07 00:50 | 42.52375 | -70.92381 | 2951 ft | 144 kts | 216° |
| 2026-05-07 00:51 | 42.51494 | -70.93005 | 2951 ft | 145 kts | 213° |
| 2026-05-07 00:51 | 42.50641 | -70.93528 | 2763 ft | 128 kts | 210° |
| 2026-05-07 00:51 | 42.49818 | -70.93991 | 2583 ft | 128 kts | 208° |
| 2026-05-07 00:51 | 42.48996 | -70.94426 | 2436 ft | 125 kts | 207° |
| 2026-05-07 00:52 | 42.48172 | -70.94847 | 2273 ft | 125 kts | 206° |
| 2026-05-07 00:52 | 42.47313 | -70.95276 | 2124 ft | 128 kts | 206° |
| 2026-05-07 00:52 | 42.46493 | -70.95678 | 1946 ft | 123 kts | 204° |
| 2026-05-07 00:52 | 42.45698 | -70.96062 | 1785 ft | 123 kts | 204° |
| 2026-05-07 00:53 | 42.44901 | -70.96455 | 1611 ft | 122 kts | 204° |
| 2026-05-07 00:53 | 42.44106 | -70.96837 | 1429 ft | 124 kts | 203° |
| 2026-05-07 00:53 | 42.43286 | -70.97234 | 1269 ft | 126 kts | 202° |
| 2026-05-07 00:53 | 42.42458 | -70.97633 | 1104 ft | 127 kts | 204° |
| 2026-05-07 00:54 | 42.41639 | -70.98029 | 920 ft | 127 kts | 202° |
| 2026-05-07 00:54 | 42.40817 | -70.98424 | 749 ft | 129 kts | 201° |
| 2026-05-07 00:54 | 42.39978 | -70.98830 | 584 ft | 130 kts | 202° |
| 2026-05-07 00:54 | 42.39140 | -70.99231 | 417 ft | 126 kts | 201° |
| 2026-05-07 00:55 | 42.38308 | -70.99633 | 238 ft | 134 kts | 200° |
| 2026-05-07 00:55 | 42.37447 | -71.00060 | 22 ft | 131 kts | 200° |
| 2026-05-07 00:55 | 42.36649 | -71.00436 | 18 ft | 109 kts | 199° |
| 2026-05-07 00:55 | 42.36078 | -71.00716 | 20 ft | 47 kts | 204° |
| 2026-05-07 00:56 | 42.35901 | -71.00937 | 23 ft | 8 kts | 228° |
| 2026-05-07 00:56 | 42.35899 | -71.00939 | 23 ft | 0 kts | 228° |
| 2026-05-07 00:57 | 42.35899 | -71.00940 | 23 ft | 0 kts | 228° |
| 2026-05-07 00:57 | 42.35852 | -71.01016 | 23 ft | 15 kts | 232° |
| 2026-05-07 00:57 | 42.35836 | -71.01141 | 23 ft | 8 kts | 279° |
| 2026-05-07 00:58 | 42.35843 | -71.01208 | 24 ft | 6 kts | 276° |
| 2026-05-07 00:58 | 42.35850 | -71.01294 | 25 ft | 14 kts | 276° |
| 2026-05-07 00:58 | 42.35862 | -71.01419 | 26 ft | 8 kts | 287° |
| 2026-05-07 00:58 | 42.35873 | -71.01486 | 26 ft | 17 kts | 281° |
| 2026-05-07 00:59 | 42.36068 | -71.01572 | 23 ft | 17 kts | 18° |
| 2026-05-07 00:59 | 42.36182 | -71.01520 | 23 ft | 16 kts | 27° |
| 2026-05-07 00:59 | 42.36277 | -71.01459 | 23 ft | 12 kts | 19° |
| 2026-05-07 01:00 | 42.36331 | -71.01433 | 23 ft | 11 kts | 20° |
| 2026-05-07 01:00 | 42.36393 | -71.01435 | 23 ft | 7 kts | 346° |
| 2026-05-07 01:00 | 42.36445 | -71.01455 | 23 ft | 4 kts | 343° |
| 2026-05-07 01:00 | 42.36457 | -71.01460 | 23 ft | 0 kts | 342° |
| 2026-05-07 01:16 | 42.36443 | -71.01453 | 23 ft | 4 kts | 342° |
| 2026-05-07 01:17 | 42.36407 | -71.01439 | 23 ft | 6 kts | 342° |
| 2026-05-07 01:17 | 42.36365 | -71.01421 | 23 ft | 0 kts | 342° |